createdAt,value
2018-09-05T00:00:57.384Z,6.90
2018-09-05T00:03:25.725Z,7.07
2018-09-05T00:05:53.938Z,7.60
2018-09-05T00:08:22.022Z,8.40
2018-09-05T00:10:50.294Z,7.33
2018-09-05T00:13:18.619Z,8.93
2018-09-05T00:15:46.760Z,8.27
2018-09-05T00:18:15.079Z,6.63
2018-09-05T00:20:43.295Z,7.43
2018-09-05T00:23:11.614Z,6.90
2018-09-05T00:25:39.799Z,6.83
2018-09-05T00:28:08.838Z,7.50
2018-09-05T00:30:37.002Z,7.13
2018-09-05T00:33:05.497Z,7.93
2018-09-05T00:35:33.667Z,7.67
2018-09-05T00:38:01.982Z,7.73
2018-09-05T00:40:30.184Z,7.73
2018-09-05T00:42:58.460Z,7.60
2018-09-05T00:45:26.668Z,7.23
2018-09-05T00:47:55.019Z,6.57
2018-09-05T00:50:30.037Z,8.00
2018-09-05T00:52:58.353Z,8.73
2018-09-05T00:55:26.951Z,8.20
2018-09-05T00:57:55.212Z,9.83
2018-09-05T01:00:23.513Z,7.83
2018-09-05T01:02:51.833Z,8.80
2018-09-05T01:05:20.437Z,6.50
2018-09-05T01:07:48.733Z,7.53
2018-09-05T01:10:17.053Z,7.13
2018-09-05T01:12:45.573Z,7.60
2018-09-05T01:15:13.927Z,8.90
2018-09-05T01:17:42.285Z,6.33
2018-09-05T01:20:11.721Z,8.67
2018-09-05T01:22:39.968Z,8.43
2018-09-05T01:25:08.419Z,9.13
2018-09-05T01:27:37.029Z,6.37
2018-09-05T01:30:05.924Z,8.13
2018-09-05T01:32:34.131Z,6.30
2018-09-05T01:35:02.482Z,7.70
2018-09-05T01:37:30.623Z,7.43
2018-09-05T01:39:58.895Z,6.40
2018-09-05T01:42:27.106Z,7.33
2018-09-05T01:44:55.342Z,7.70
2018-09-05T01:47:23.573Z,8.40
2018-09-05T01:49:51.860Z,8.50
2018-09-05T01:52:20.071Z,6.83
2018-09-05T01:54:48.347Z,9.00
2018-09-05T01:57:16.512Z,8.00
2018-09-05T01:59:44.762Z,9.10
2018-09-05T02:02:13.488Z,8.07
2018-09-05T02:04:41.900Z,6.60
2018-09-05T02:07:10.056Z,9.53
2018-09-05T02:09:38.200Z,7.37
2018-09-05T02:12:06.471Z,8.47
2018-09-05T02:14:34.750Z,9.33
2018-09-05T02:17:02.987Z,7.30
2018-09-05T02:19:31.260Z,6.97
2018-09-05T02:21:59.544Z,7.83
2018-09-05T02:24:27.863Z,12.50
2018-09-05T02:26:56.503Z,7.17
2018-09-05T02:29:25.865Z,9.00
2018-09-05T02:31:53.518Z,8.17
2018-09-05T02:34:21.682Z,7.90
2018-09-05T02:36:49.972Z,8.03
2018-09-05T02:39:18.387Z,10.00
2018-09-05T02:41:47.389Z,8.77
2018-09-05T02:44:18.710Z,5.93
2018-09-05T02:46:47.587Z,8.40
2018-09-05T02:49:15.901Z,9.37
2018-09-05T02:51:44.087Z,11.50
2018-09-05T02:54:18.985Z,10.00
2018-09-05T02:56:47.536Z,8.93
2018-09-05T02:59:15.984Z,8.07
2018-09-05T03:01:44.428Z,10.03
2018-09-05T03:04:12.850Z,10.23
2018-09-05T03:06:41.099Z,9.20
2018-09-05T03:09:09.300Z,10.43
2018-09-05T03:11:37.620Z,7.60
2018-09-05T03:14:05.881Z,10.43
2018-09-05T03:16:34.233Z,8.23
2018-09-05T03:19:04.108Z,9.00
2018-09-05T03:21:30.563Z,12.70
2018-09-05T03:23:58.702Z,8.53
2018-09-05T03:26:27.251Z,9.60
2018-09-05T03:28:55.547Z,11.17
2018-09-05T03:31:30.315Z,9.33
2018-09-05T03:33:58.573Z,10.37
2018-09-05T03:36:26.815Z,9.83
2018-09-05T03:38:54.929Z,10.00
2018-09-05T03:41:23.267Z,10.87
2018-09-05T03:43:51.615Z,8.87
2018-09-05T03:46:19.873Z,9.83
2018-09-05T03:48:48.416Z,8.57
2018-09-05T03:51:16.551Z,7.57
2018-09-05T03:53:44.696Z,10.13
2018-09-05T03:56:13.019Z,9.40
2018-09-05T03:58:41.143Z,10.57
2018-09-05T04:01:09.436Z,11.63
2018-09-05T04:03:37.654Z,9.47
2018-09-05T04:06:05.832Z,10.43
2018-09-05T04:08:33.984Z,10.07
2018-09-05T04:11:02.193Z,10.03
2018-09-05T04:13:30.348Z,9.93
2018-09-05T04:15:58.736Z,8.47
2018-09-05T04:18:27.066Z,10.67
2018-09-05T04:20:55.218Z,13.23
2018-09-05T04:23:23.413Z,13.47
2018-09-05T04:25:52.748Z,11.20
2018-09-05T04:28:20.983Z,11.00
2018-09-05T04:30:49.284Z,14.27
2018-09-05T04:33:17.603Z,10.20
2018-09-05T04:35:45.858Z,12.20
2018-09-05T04:38:14.010Z,9.17
2018-09-05T04:40:42.306Z,12.60
2018-09-05T04:43:10.653Z,12.23
2018-09-05T04:45:38.801Z,11.30
2018-09-05T04:48:07.029Z,10.07
2018-09-05T04:50:35.967Z,13.77
2018-09-05T04:53:04.228Z,13.03
2018-09-05T04:55:32.457Z,12.83
2018-09-05T04:58:00.719Z,11.33
2018-09-05T05:00:28.942Z,12.10
2018-09-05T05:02:57.425Z,10.93
2018-09-05T05:05:25.628Z,15.53
2018-09-05T05:07:54.071Z,15.10
2018-09-05T05:10:22.198Z,14.20
2018-09-05T05:12:50.319Z,12.93
2018-09-05T05:15:18.413Z,11.97
2018-09-05T05:17:46.891Z,10.87
2018-09-05T05:20:15.176Z,12.93
2018-09-05T05:22:43.406Z,13.60
2018-09-05T05:25:11.630Z,13.70
2018-09-05T05:27:39.731Z,17.13
2018-09-05T05:30:08.005Z,14.43
2018-09-05T05:32:36.386Z,13.97
2018-09-05T05:35:04.673Z,13.50
2018-09-05T05:37:33.001Z,15.70
2018-09-05T05:40:05.154Z,13.67
2018-09-05T05:42:33.928Z,14.30
2018-09-05T05:45:02.406Z,15.07
2018-09-05T05:47:31.474Z,14.00
2018-09-05T05:49:59.643Z,15.20
2018-09-05T05:52:27.808Z,13.93
2018-09-05T05:54:56.127Z,14.17
2018-09-05T05:57:24.340Z,16.23
2018-09-05T05:59:52.674Z,12.97
2018-09-05T06:02:20.960Z,11.53
2018-09-05T06:04:49.302Z,11.80
2018-09-05T06:07:17.556Z,11.93
2018-09-05T06:09:45.696Z,15.40
2018-09-05T06:12:13.894Z,14.93
2018-09-05T06:14:42.065Z,14.00
2018-09-05T06:17:10.461Z,10.93
2018-09-05T06:19:38.592Z,12.47
2018-09-05T06:22:06.865Z,13.80
2018-09-05T06:24:35.192Z,15.07
2018-09-05T06:27:03.382Z,11.70
2018-09-05T06:29:31.570Z,13.63
2018-09-05T06:31:59.675Z,17.60
2018-09-05T06:34:27.893Z,14.27
2018-09-05T06:36:56.092Z,12.57
2018-09-05T06:39:27.134Z,15.77
2018-09-05T06:41:57.667Z,14.53
2018-09-05T06:44:25.961Z,17.63
2018-09-05T06:46:54.153Z,16.20
2018-09-05T06:49:22.405Z,11.20
2018-09-05T06:51:50.561Z,14.23
2018-09-05T06:54:18.831Z,14.03
2018-09-05T06:56:46.953Z,13.00
2018-09-05T06:59:15.049Z,17.30
2018-09-05T07:01:43.242Z,14.47
2018-09-05T07:04:11.541Z,11.97
2018-09-05T07:06:39.712Z,13.30
2018-09-05T07:09:14.085Z,15.13
2018-09-05T07:11:42.736Z,11.50
2018-09-05T07:14:11.477Z,13.20
2018-09-05T07:16:39.674Z,11.73
2018-09-05T07:19:09.674Z,10.67
2018-09-05T07:21:38.120Z,13.53
2018-09-05T07:24:06.670Z,13.57
2018-09-05T07:26:35.072Z,13.27
2018-09-05T07:29:03.517Z,14.13
2018-09-05T07:31:31.744Z,17.67
2018-09-05T07:34:00.421Z,14.60
2018-09-05T07:36:28.657Z,12.47
2018-09-05T07:38:57.443Z,10.50
2018-09-05T07:41:25.701Z,11.87
2018-09-05T07:43:53.993Z,12.10
2018-09-05T07:46:22.237Z,11.67
2018-09-05T07:48:50.403Z,14.80
2018-09-05T07:51:19.633Z,13.60
2018-09-05T07:53:47.905Z,12.67
2018-09-05T07:56:16.225Z,13.53
2018-09-05T07:58:45.116Z,12.10
2018-09-05T08:01:14.078Z,11.50
2018-09-05T08:03:42.329Z,11.47
2018-09-05T08:06:10.562Z,14.87
2018-09-05T08:08:40.385Z,13.53
2018-09-05T08:11:08.709Z,10.53
2018-09-05T08:13:37.092Z,11.57
2018-09-05T08:16:06.010Z,11.50
2018-09-05T08:18:34.270Z,10.43
2018-09-05T08:21:02.508Z,10.03
2018-09-05T08:23:30.986Z,10.00
2018-09-05T08:25:59.137Z,9.58
2018-09-05T08:28:27.455Z,7.78
2018-09-05T08:30:55.680Z,8.00
2018-09-05T08:33:23.912Z,6.58
2018-09-05T08:35:52.951Z,6.97
2018-09-05T08:38:20.809Z,5.05
2018-09-05T08:40:49.869Z,8.43
2018-09-05T08:43:17.996Z,5.85
2018-09-05T08:45:46.294Z,6.72
2018-09-05T08:48:14.380Z,5.72
2018-09-05T08:50:42.495Z,6.37
2018-09-05T08:53:10.640Z,5.22
2018-09-05T08:55:38.837Z,6.75
2018-09-05T08:58:07.228Z,7.28
2018-09-05T09:00:35.453Z,6.25
2018-09-05T09:03:03.850Z,5.75
2018-09-05T09:05:31.932Z,6.08
2018-09-05T09:08:00.244Z,5.87
2018-09-05T09:10:28.536Z,4.17
2018-09-05T09:12:56.917Z,5.33
2018-09-05T09:15:25.046Z,4.87
2018-09-05T09:17:53.300Z,4.78
2018-09-05T09:20:21.478Z,4.03
2018-09-05T09:22:50.216Z,3.92
2018-09-05T09:25:18.419Z,4.20
2018-09-05T09:27:46.663Z,4.55
2018-09-05T09:30:14.870Z,4.12
2018-09-05T09:32:42.989Z,5.03
2018-09-05T09:35:11.276Z,5.53
2018-09-05T09:37:41.696Z,5.60
2018-09-05T09:40:11.131Z,4.30
2018-09-05T09:42:40.117Z,5.78
2018-09-05T09:45:09.375Z,8.35
2018-09-05T09:47:37.581Z,6.80
2018-09-05T09:50:05.919Z,4.80
2018-09-05T09:52:37.134Z,5.28
2018-09-05T09:55:07.736Z,4.70
2018-09-05T09:57:36.361Z,5.05
2018-09-05T10:00:05.684Z,5.87
2018-09-05T10:02:40.433Z,5.75
2018-09-05T10:05:14.627Z,6.15
2018-09-05T10:07:48.529Z,6.20
2018-09-05T10:10:22.835Z,6.37
2018-09-05T10:12:56.915Z,5.67
2018-09-05T10:15:30.909Z,7.17
2018-09-05T10:18:04.721Z,5.28
2018-09-05T10:20:33.000Z,4.45
2018-09-05T10:23:01.260Z,5.60
2018-09-05T10:25:29.433Z,4.58
2018-09-05T10:27:57.596Z,4.85
2018-09-05T10:30:25.725Z,4.58
2018-09-05T10:32:54.162Z,3.50
2018-09-05T10:35:22.433Z,4.03
2018-09-05T10:37:50.658Z,4.60
2018-09-05T10:40:18.794Z,5.58
2018-09-05T10:42:47.565Z,4.00
2018-09-05T10:45:15.762Z,4.62
2018-09-05T10:47:44.144Z,4.20
2018-09-05T10:50:12.242Z,3.77
2018-09-05T10:52:40.681Z,4.00
2018-09-05T10:55:08.839Z,4.72
2018-09-05T10:57:36.998Z,3.62
2018-09-05T11:00:05.521Z,4.08
2018-09-05T11:02:33.631Z,5.00
2018-09-05T11:05:02.945Z,4.92
2018-09-05T11:07:31.059Z,4.65
2018-09-05T11:09:59.406Z,3.85
2018-09-05T11:12:27.516Z,4.55
2018-09-05T11:14:55.651Z,4.70
2018-09-05T11:17:23.766Z,4.47
2018-09-05T11:19:51.958Z,4.25
2018-09-05T11:22:20.079Z,3.65
2018-09-05T11:24:48.240Z,4.33
2018-09-05T11:27:16.317Z,5.30
2018-09-05T11:29:44.694Z,5.65
2018-09-05T11:32:12.895Z,4.00
2018-09-05T11:34:41.089Z,5.20
2018-09-05T11:37:09.257Z,3.70
2018-09-05T11:39:37.400Z,4.28
2018-09-05T11:42:05.624Z,4.10
2018-09-05T11:44:33.865Z,8.43
2018-09-05T11:47:02.235Z,4.70
2018-09-05T11:49:30.431Z,4.33
2018-09-05T11:51:58.622Z,4.05
2018-09-05T11:54:26.744Z,4.40
2018-09-05T11:56:54.901Z,4.92
2018-09-05T11:59:23.030Z,5.15
2018-09-05T12:01:51.228Z,6.47
2018-09-05T12:04:19.398Z,6.12
2018-09-05T12:06:47.684Z,5.47
2018-09-05T12:09:15.881Z,4.90
2018-09-05T12:11:44.144Z,6.90
2018-09-05T12:14:12.284Z,4.20
2018-09-05T12:16:40.494Z,4.85
2018-09-05T12:19:08.834Z,7.30
2018-09-05T12:21:36.970Z,4.80
2018-09-05T12:24:05.126Z,4.97
2018-09-05T12:26:33.592Z,6.67
2018-09-05T12:29:04.374Z,5.00
2018-09-05T12:31:33.490Z,4.25
2018-09-05T12:34:01.770Z,4.67
2018-09-05T12:36:29.998Z,4.50
2018-09-05T12:38:58.345Z,6.40
2018-09-05T12:41:26.624Z,5.97
2018-09-05T12:43:54.807Z,4.70
2018-09-05T12:46:22.972Z,4.70
2018-09-05T12:48:51.162Z,4.70
2018-09-05T12:51:19.436Z,6.05
2018-09-05T12:53:47.616Z,5.67
2018-09-05T12:56:15.870Z,4.50
2018-09-05T12:58:44.159Z,4.33
2018-09-05T13:01:12.503Z,4.00
2018-09-05T13:03:40.741Z,3.87
2018-09-05T13:06:09.000Z,6.35
2018-09-05T13:08:37.206Z,5.87
2018-09-05T13:11:06.111Z,6.72
2018-09-05T13:13:34.269Z,4.45
2018-09-05T13:16:02.607Z,5.60
2018-09-05T13:18:30.757Z,4.08
2018-09-05T13:20:59.021Z,4.30
2018-09-05T13:23:27.179Z,5.53
2018-09-05T13:25:55.409Z,6.47
2018-09-05T13:28:23.635Z,5.67
2018-09-05T13:30:51.803Z,4.78
2018-09-05T13:33:20.053Z,12.60
2018-09-05T13:35:48.191Z,5.35
2018-09-05T13:38:16.483Z,7.12
2018-09-05T13:40:44.797Z,5.17
2018-09-05T13:43:13.047Z,6.67
2018-09-05T13:45:41.298Z,7.12
2018-09-05T13:48:09.590Z,6.37
2018-09-05T13:50:37.911Z,6.55
2018-09-05T13:53:06.453Z,9.30
2018-09-05T13:55:34.600Z,5.80
2018-09-05T13:58:02.808Z,5.80
2018-09-05T14:00:30.946Z,7.03
2018-09-05T14:02:59.445Z,7.30
2018-09-05T14:05:27.758Z,5.87
2018-09-05T14:07:56.029Z,5.22
2018-09-05T14:10:24.224Z,4.97
2018-09-05T14:12:53.004Z,5.75
2018-09-05T14:15:21.271Z,4.72
2018-09-05T14:17:49.543Z,5.85
2018-09-05T14:20:17.826Z,5.87
2018-09-05T14:22:45.994Z,5.30
2018-09-05T14:25:14.178Z,7.55
2018-09-05T14:27:43.060Z,6.95
2018-09-05T14:30:11.210Z,5.20
2018-09-05T14:32:39.552Z,6.62
2018-09-05T14:35:07.808Z,5.95
2018-09-05T14:37:36.122Z,6.03
2018-09-05T14:40:04.427Z,5.50
2018-09-05T14:42:32.519Z,6.20
2018-09-05T14:45:00.759Z,5.33
2018-09-05T14:47:28.948Z,6.20
2018-09-05T14:49:57.177Z,5.60
2018-09-05T14:52:25.369Z,5.35
2018-09-05T14:54:53.589Z,5.83
2018-09-05T14:57:22.430Z,5.22
2018-09-05T14:59:50.692Z,5.55
2018-09-05T15:02:19.520Z,4.60
2018-09-05T15:04:47.707Z,6.70
2018-09-05T15:07:16.300Z,7.90
2018-09-05T15:09:44.528Z,9.98
2018-09-05T15:12:12.743Z,6.47
2018-09-05T15:14:40.865Z,5.20
2018-09-05T15:17:09.126Z,6.50
2018-09-05T15:19:37.264Z,6.25
2018-09-05T15:22:05.477Z,5.85
2018-09-05T15:24:33.657Z,6.58
2018-09-05T15:27:01.859Z,5.72
2018-09-05T15:29:29.976Z,8.70
2018-09-05T15:31:58.222Z,6.08
2018-09-05T15:34:26.505Z,6.30
2018-09-05T15:36:54.759Z,6.53
2018-09-05T15:39:23.087Z,7.08
2018-09-05T15:41:51.183Z,5.72
2018-09-05T15:44:19.451Z,7.70
2018-09-05T15:46:47.681Z,7.43
2018-09-05T15:49:15.997Z,5.50
2018-09-05T15:51:44.209Z,6.73
2018-09-05T15:54:12.491Z,6.77
2018-09-05T15:56:40.860Z,7.33
2018-09-05T15:59:09.000Z,6.70
2018-09-05T16:01:37.333Z,8.50
2018-09-05T16:04:05.676Z,6.83
2018-09-05T16:06:34.170Z,4.97
2018-09-05T16:09:02.374Z,6.83
2018-09-05T16:11:30.676Z,9.03
2018-09-05T16:13:58.764Z,5.60
2018-09-05T16:16:27.099Z,6.50
2018-09-05T16:18:55.212Z,5.73
2018-09-05T16:21:23.465Z,6.73
2018-09-05T16:23:51.728Z,5.50
2018-09-05T16:26:20.079Z,5.00
2018-09-05T16:28:48.525Z,6.37
2018-09-05T16:31:16.606Z,6.10
2018-09-05T16:33:44.895Z,5.20
2018-09-05T16:36:13.094Z,5.80
2018-09-05T16:38:41.912Z,7.17
2018-09-05T16:41:10.048Z,6.17
2018-09-05T16:43:38.376Z,7.77
2018-09-05T16:46:07.267Z,6.60
2018-09-05T16:48:35.628Z,6.27
2018-09-05T16:51:03.805Z,6.70
2018-09-05T16:53:32.063Z,5.03
2018-09-05T16:56:00.221Z,5.53
2018-09-05T16:58:29.264Z,5.33
2018-09-05T17:00:57.463Z,7.13
2018-09-05T17:03:25.717Z,7.47
2018-09-05T17:05:53.820Z,5.70
2018-09-05T17:08:22.873Z,5.43
2018-09-05T17:10:51.328Z,6.50
2018-09-05T17:13:19.631Z,7.10
2018-09-05T17:15:47.841Z,5.93
2018-09-05T17:18:16.160Z,5.23
2018-09-05T17:20:44.368Z,8.73
2018-09-05T17:23:12.958Z,6.40
2018-09-05T17:25:41.419Z,5.50
2018-09-05T17:28:09.714Z,7.57
2018-09-05T17:30:37.855Z,6.80
2018-09-05T17:33:06.965Z,6.90
2018-09-05T17:35:35.070Z,6.60
2018-09-05T17:38:03.258Z,5.37
2018-09-05T17:40:31.492Z,7.63
2018-09-05T17:42:59.729Z,5.30
2018-09-05T17:45:27.850Z,7.67
2018-09-05T17:47:56.061Z,7.93
2018-09-05T17:50:24.544Z,7.03
2018-09-05T17:52:52.701Z,5.33
2018-09-05T17:55:20.841Z,4.97
2018-09-05T17:57:49.795Z,7.30
2018-09-05T18:00:18.112Z,6.80
2018-09-05T18:02:46.258Z,5.97
2018-09-05T18:05:14.421Z,8.90
2018-09-05T18:07:42.793Z,5.83
2018-09-05T18:10:11.770Z,6.47
2018-09-05T18:12:39.867Z,6.13
2018-09-05T18:15:08.041Z,6.20
2018-09-05T18:17:36.157Z,6.53
2018-09-05T18:20:04.470Z,5.67
2018-09-05T18:22:32.595Z,6.23
2018-09-05T18:25:00.787Z,5.60
2018-09-05T18:27:35.760Z,6.23
2018-09-05T18:30:04.638Z,5.97
2018-09-05T18:32:32.947Z,5.80
2018-09-05T18:35:01.196Z,5.57
2018-09-05T18:37:29.318Z,5.33
2018-09-05T18:40:04.470Z,6.23
2018-09-05T18:42:32.690Z,6.20
2018-09-05T18:45:00.861Z,6.03
2018-09-05T18:47:29.067Z,7.70
2018-09-05T18:49:57.304Z,5.90
2018-09-05T18:52:25.445Z,6.13
2018-09-05T18:54:53.722Z,7.27
2018-09-05T18:57:21.932Z,6.90
2018-09-05T18:59:50.420Z,7.17
2018-09-05T19:02:18.702Z,8.47
2018-09-05T19:04:46.955Z,9.27
2018-09-05T19:07:15.166Z,7.03
2018-09-05T19:09:43.494Z,7.37
2018-09-05T19:12:12.239Z,6.87
2018-09-05T19:14:40.462Z,9.30
2018-09-05T19:17:08.825Z,7.47
2018-09-05T19:19:37.570Z,6.77
2018-09-05T19:22:05.964Z,8.37
2018-09-05T19:24:34.004Z,7.60
2018-09-05T19:27:02.104Z,7.10
2018-09-05T19:29:30.401Z,8.43
2018-09-05T19:31:58.571Z,8.47
2018-09-05T19:34:26.856Z,7.77
2018-09-05T19:36:55.854Z,7.30
2018-09-05T19:39:24.691Z,7.20
2018-09-05T19:41:52.779Z,9.23
2018-09-05T19:44:21.028Z,7.43
2018-09-05T19:46:49.177Z,7.50
2018-09-05T19:49:17.592Z,7.67
2018-09-05T19:51:45.663Z,9.70
2018-09-05T19:54:13.941Z,7.17
2018-09-05T19:56:42.293Z,9.13
2018-09-05T19:59:10.582Z,7.63
2018-09-05T20:01:38.700Z,7.50
2018-09-05T20:04:06.938Z,8.87
2018-09-05T20:06:35.253Z,7.93
2018-09-05T20:09:05.215Z,10.63
2018-09-05T20:11:34.805Z,7.80
2018-09-05T20:14:03.183Z,9.97
2018-09-05T20:16:31.652Z,8.80
2018-09-05T20:19:00.193Z,9.90
2018-09-05T20:21:28.710Z,13.07
2018-09-05T20:23:57.358Z,7.40
2018-09-05T20:26:25.490Z,10.60
2018-09-05T20:28:53.781Z,11.17
2018-09-05T20:31:22.609Z,10.77
2018-09-05T20:33:50.806Z,10.73
2018-09-05T20:36:19.062Z,14.27
2018-09-05T20:38:48.054Z,17.80
2018-09-05T20:41:16.353Z,13.40
2018-09-05T20:43:44.575Z,11.67
2018-09-05T20:46:12.655Z,13.37
2018-09-05T20:48:41.221Z,9.47
2018-09-05T20:51:09.324Z,9.40
2018-09-05T20:53:37.465Z,9.13
2018-09-05T20:56:07.363Z,8.87
2018-09-05T20:58:35.643Z,9.77
2018-09-05T21:01:04.407Z,8.83
2018-09-05T21:03:32.509Z,8.70
2018-09-05T21:06:00.610Z,9.60
2018-09-05T21:08:28.718Z,9.03
2018-09-05T21:10:56.867Z,9.57
2018-09-05T21:13:25.401Z,8.77
2018-09-05T21:15:53.499Z,10.47
2018-09-05T21:18:21.664Z,9.47
2018-09-05T21:20:49.905Z,8.87
2018-09-05T21:23:18.062Z,9.90
2018-09-05T21:25:46.402Z,8.77
2018-09-05T21:28:14.558Z,8.73
2018-09-05T21:30:42.829Z,9.87
2018-09-05T21:33:11.051Z,9.93
2018-09-05T21:35:39.226Z,11.70
2018-09-05T21:38:07.465Z,9.70
2018-09-05T21:40:35.559Z,13.23
2018-09-05T21:43:04.770Z,10.37
2018-09-05T21:45:33.312Z,11.33
2018-09-05T21:48:01.627Z,11.10
2018-09-05T21:50:29.963Z,8.67
2018-09-05T21:52:58.098Z,11.80
2018-09-05T21:55:26.343Z,11.77
2018-09-05T21:57:54.520Z,8.67
2018-09-05T22:00:22.745Z,8.37
2018-09-05T22:02:51.022Z,9.70
2018-09-05T22:05:19.172Z,7.20
2018-09-05T22:07:47.444Z,9.77
2018-09-05T22:10:15.641Z,8.57
2018-09-05T22:12:43.949Z,9.93
2018-09-05T22:15:12.228Z,12.23
2018-09-05T22:17:40.514Z,8.33
2018-09-05T22:20:08.948Z,8.50
2018-09-05T22:22:37.117Z,8.60
2018-09-05T22:25:05.274Z,9.83
2018-09-05T22:27:33.575Z,11.67
2018-09-05T22:30:01.720Z,7.73
2018-09-05T22:32:29.816Z,9.40
2018-09-05T22:34:57.990Z,7.60
2018-09-05T22:37:26.108Z,7.83
2018-09-05T22:39:54.346Z,7.07
2018-09-05T22:42:22.648Z,7.30
2018-09-05T22:45:07.829Z,8.87
2018-09-05T22:49:01.600Z,11.37
2018-09-05T22:53:08.200Z,8.23
2018-09-05T22:58:53.892Z,7.87
2018-09-05T23:01:56.620Z,9.70
2018-09-05T23:04:56.630Z,9.23
2018-09-05T23:08:35.512Z,10.17
2018-09-05T23:11:20.950Z,7.73
2018-09-05T23:15:04.930Z,10.17
2018-09-05T23:22:04.960Z,6.63
2018-09-05T23:24:33.062Z,12.07
2018-09-05T23:27:01.511Z,7.03
2018-09-05T23:29:29.623Z,9.30
2018-09-05T23:31:57.710Z,10.23
2018-09-05T23:34:26.054Z,11.03
2018-09-05T23:36:54.208Z,9.50
2018-09-05T23:39:22.498Z,10.10
2018-09-05T23:41:50.816Z,8.87
2018-09-05T23:44:18.963Z,10.10
2018-09-05T23:46:47.127Z,8.13
2018-09-05T23:49:15.434Z,9.23
2018-09-05T23:51:43.554Z,8.70
2018-09-05T23:54:11.828Z,10.10
2018-09-05T23:56:40.126Z,9.03
2018-09-05T23:59:08.427Z,8.20
